Time;durP1;ratioP1;P1;durP2;ratioP2;P2;SDS_P1;SDS_P2;PMS_P1;PMS_P2;Temp;Humidity;BMP_temperature;BMP_pressure;BME280_temperature;BME280_humidity;BME280_pressure;Samples;Min_cycle;Max_cycle;Signal;HPM_P1;HPM_P2
2022/03/15 00:01:33;;;;;;;40.97;22.35;;;;;;;2.27;48.48;102007.03;5116121;28;20373;-77
2022/03/15 00:04:03;;;;;;;43.28;21.77;;;;;;;2.32;47.79;102012.31;5116578;28;20040;-77
2022/03/15 00:06:32;;;;;;;44.95;21.30;;;;;;;2.36;47.81;102008.81;5115898;28;20036;-77
2022/03/15 00:09:00;;;;;;;43.17;20.92;;;;;;;2.45;47.05;102002.66;5115955;28;20039;-77
2022/03/15 00:11:30;;;;;;;39.75;19.13;;;;;;;2.52;46.12;101999.19;5115917;28;20067;-77
2022/03/15 00:13:59;;;;;;;35.97;19.38;;;;;;;2.51;46.14;101995.66;5116030;28;20050;-75
2022/03/15 00:16:27;;;;;;;33.88;19.65;;;;;;;2.45;46.60;101994.78;5115863;28;20079;-76
2022/03/15 00:18:57;;;;;;;45.47;20.15;;;;;;;2.40;46.64;102000.00;5115673;28;20043;-76
2022/03/15 00:21:28;;;;;;;45.80;20.45;;;;;;;2.37;46.91;101996.50;5114674;28;20047;-75
2022/03/15 00:23:56;;;;;;;37.08;18.90;;;;;;;2.31;46.98;101989.47;5116340;28;20040;-76
2022/03/15 00:26:24;;;;;;;42.72;18.58;;;;;;;2.52;45.42;101986.00;5115576;28;20052;-76
2022/03/15 00:28:53;;;;;;;37.90;18.98;;;;;;;2.61;45.17;101983.38;5115926;28;20092;-76
2022/03/15 00:31:23;;;;;;;41.05;20.13;;;;;;;2.58;45.44;101993.88;5115410;28;20040;-76
2022/03/15 00:33:51;;;;;;;40.63;19.98;;;;;;;2.50;47.24;101990.38;5115585;28;20048;-75
2022/03/15 00:36:19;;;;;;;39.97;19.98;;;;;;;2.28;47.58;101998.25;5115482;28;20400;-77
2022/03/15 00:38:49;;;;;;;38.92;19.45;;;;;;;2.15;47.60;101992.97;5115299;28;20044;-77
2022/03/15 00:41:18;;;;;;;37.45;19.58;;;;;;;2.25;46.94;101995.63;5115131;28;20108;-78
2022/03/15 00:43:46;;;;;;;35.53;18.55;;;;;;;2.40;46.31;101993.88;5115718;28;20040;-77
2022/03/15 00:46:14;;;;;;;38.38;18.63;;;;;;;2.30;46.41;101995.63;5115178;28;20553;-77
2022/03/15 00:48:42;;;;;;;35.70;17.98;;;;;;;2.49;45.64;101980.72;5115512;28;20452;-76
2022/03/15 00:51:11;;;;;;;30.48;16.65;;;;;;;2.69;44.76;101978.94;5115411;28;20126;-78
2022/03/15 00:53:39;;;;;;;33.67;16.50;;;;;;;2.74;44.35;101973.69;5114656;28;20077;-77
2022/03/15 00:56:09;;;;;;;30.95;16.27;;;;;;;2.79;44.57;101977.19;5115404;28;20046;-77
2022/03/15 00:58:37;;;;;;;31.65;16.08;;;;;;;2.78;44.08;101972.81;5114906;28;20152;-77
2022/03/15 01:01:06;;;;;;;33.10;16.45;;;;;;;2.75;44.31;101962.28;5115346;28;20496;-77
2022/03/15 01:03:34;;;;;;;33.17;16.50;;;;;;;2.74;44.38;101964.03;5114819;28;20150;-77
2022/03/15 01:06:03;;;;;;;35.78;16.92;;;;;;;2.57;45.44;101960.53;5114164;28;20048;-76
2022/03/15 01:08:31;;;;;;;33.95;17.00;;;;;;;2.50;45.31;101959.63;5114480;28;20070;-77
2022/03/15 01:11:00;;;;;;;37.22;18.33;;;;;;;2.40;45.70;101959.63;5115126;28;20070;-77
2022/03/15 01:13:30;;;;;;;36.00;19.10;;;;;;;2.23;46.86;101965.78;5114457;28;20051;-77
2022/03/15 01:15:59;;;;;;;43.55;18.65;;;;;;;2.18;47.30;101967.53;5114809;28;20135;-77
2022/03/15 01:18:27;;;;;;;36.47;18.73;;;;;;;2.18;46.98;101970.16;5114367;28;20043;-77
2022/03/15 01:20:56;;;;;;;35.28;17.23;;;;;;;2.14;46.60;101960.50;5114991;28;20043;-76
2022/03/15 01:23:26;;;;;;;38.97;17.67;;;;;;;2.34;46.34;101959.66;5114363;28;20096;-77
2022/03/15 01:25:55;;;;;;;35.58;17.35;;;;;;;2.48;45.51;101952.63;5114533;28;20097;-78
2022/03/15 01:28:24;;;;;;;34.22;16.42;;;;;;;2.65;44.87;101942.97;5114208;28;20052;-77
2022/03/15 01:30:54;;;;;;;28.60;14.55;;;;;;;2.93;43.71;101935.03;5114636;28;20133;-77
2022/03/15 01:33:23;;;;;;;30.92;15.02;;;;;;;2.82;43.74;101943.81;5114335;28;20076;-77
2022/03/15 01:35:51;;;;;;;28.70;15.32;;;;;;;2.85;43.68;101945.56;5114250;28;20071;-78
2022/03/15 01:38:20;;;;;;;30.77;14.95;;;;;;;2.85;43.75;101935.03;5114452;28;20096;-77
2022/03/15 01:40:48;;;;;;;27.98;14.75;;;;;;;2.83;43.58;101940.31;5114486;28;20042;-77
2022/03/15 01:43:16;;;;;;;27.88;14.52;;;;;;;2.86;43.29;101940.28;5114601;28;20123;-76
2022/03/15 01:45:44;;;;;;;28.50;14.95;;;;;;;2.86;43.76;101942.06;5113002;28;20135;-76
2022/03/15 01:48:14;;;;;;;29.08;14.73;;;;;;;2.67;44.46;101940.31;5114454;28;20051;-76
2022/03/15 01:50:42;;;;;;;28.92;15.25;;;;;;;2.66;44.50;101949.97;5114065;28;20055;-77
2022/03/15 01:53:12;;;;;;;29.20;14.63;;;;;;;2.65;44.04;101953.50;5114172;28;20112;-77
2022/03/15 01:55:40;;;;;;;27.60;14.05;;;;;;;2.57;44.24;101956.13;5113991;28;20035;-77
2022/03/15 01:58:09;;;;;;;26.98;14.32;;;;;;;2.47;44.67;101953.50;5113321;28;20050;-77
2022/03/15 02:00:37;;;;;;;25.10;13.40;;;;;;;2.55;44.44;101951.75;5113461;28;20040;-77
2022/03/15 02:03:06;;;;;;;31.98;14.55;;;;;;;2.52;44.90;101941.22;5113797;28;20126;-77
2022/03/15 02:05:36;;;;;;;28.88;14.05;;;;;;;2.48;45.04;101934.19;5113549;28;20040;-76
2022/03/15 02:08:10;;;;;;;29.13;14.38;;;;;;;2.34;45.16;101935.94;5114453;28;20477;-76
2022/03/15 02:10:38;;;;;;;26.50;14.15;;;;;;;2.28;45.76;101935.06;5113753;28;20047;-76
2022/03/15 02:13:06;;;;;;;30.35;14.73;;;;;;;2.27;45.86;101937.69;5113740;28;20046;-76
2022/03/15 02:15:35;;;;;;;27.17;13.98;;;;;;;2.32;45.70;101942.94;5113655;28;20164;-75
2022/03/15 02:18:05;;;;;;;27.02;13.90;;;;;;;2.27;46.01;101951.72;5113903;28;20067;-76
2022/03/15 02:20:35;;;;;;;28.00;14.48;;;;;;;2.21;46.22;101954.34;5113132;28;20042;-77
2022/03/15 02:23:03;;;;;;;27.98;14.85;;;;;;;2.06;46.81;101951.72;5113595;28;20058;-76
2022/03/15 02:25:31;;;;;;;26.75;15.48;;;;;;;1.97;47.82;101947.31;5113475;28;20073;-76
2022/03/15 02:28:00;;;;;;;29.58;14.48;;;;;;;1.89;47.87;101938.50;5113394;28;20065;-77
2022/03/15 02:30:30;;;;;;;27.40;13.68;;;;;;;1.86;48.17;101948.16;5113190;28;20046;-76
2022/03/15 02:32:59;;;;;;;32.22;14.70;;;;;;;1.82;48.02;101949.00;5112926;28;20102;-76
2022/03/15 02:35:27;;;;;;;33.95;15.25;;;;;;;1.75;48.20;101949.88;5113074;28;20476;-79
2022/03/15 02:37:57;;;;;;;31.02;15.43;;;;;;;1.67;48.71;101944.59;5113547;28;20043;-78
2022/03/15 02:40:25;;;;;;;31.50;15.70;;;;;;;1.55;49.09;101942.81;5113339;28;20374;-78
2022/03/15 02:42:53;;;;;;;30.42;15.35;;;;;;;1.53;49.55;101949.78;5113758;28;20413;-78
2022/03/15 02:45:22;;;;;;;31.67;16.05;;;;;;;1.45;50.00;101951.53;5118619;28;20126;-78
2022/03/15 02:47:51;;;;;;;31.77;15.95;;;;;;;1.46;49.97;101955.91;5120295;28;20046;-77
2022/03/15 02:50:19;;;;;;;30.17;15.15;;;;;;;1.46;49.90;101963.81;5120413;28;20059;-77
2022/03/15 02:52:48;;;;;;;30.45;15.18;;;;;;;1.53;49.81;101965.56;5119822;28;20401;-77
2022/03/15 02:55:18;;;;;;;28.73;14.35;;;;;;;1.49;50.63;101961.19;5120505;28;20040;-76
2022/03/15 02:57:49;;;;;;;30.27;15.85;;;;;;;1.35;51.03;101958.50;5120015;28;20043;-76
2022/03/15 03:00:18;;;;;;;31.48;15.95;;;;;;;1.30;50.67;101957.59;5120233;28;20135;-77
2022/03/15 03:02:46;;;;;;;31.08;15.80;;;;;;;1.29;50.22;101955.84;5119947;28;20048;-77
2022/03/15 03:05:14;;;;;;;33.63;15.80;;;;;;;1.59;48.51;101955.09;5120884;28;20435;-77
2022/03/15 03:07:45;;;;;;;30.05;15.20;;;;;;;1.51;48.77;101945.41;5119431;28;20040;-77
2022/03/15 03:10:15;;;;;;;30.10;16.27;;;;;;;1.57;48.15;101948.94;5120295;28;20051;-78
2022/03/15 03:12:45;;;;;;;34.67;16.85;;;;;;;1.51;49.07;101951.53;5119999;28;20067;-78
2022/03/15 03:15:15;;;;;;;34.70;16.50;;;;;;;1.46;48.97;101944.53;5120329;28;20074;-77
2022/03/15 03:17:45;;;;;;;31.98;16.63;;;;;;;1.36;49.99;101952.38;5119927;27;20040;-77
2022/03/15 03:20:22;;;;;;;36.65;16.83;;;;;;;1.27;50.30;101952.31;5119867;28;20043;-79
2022/03/15 03:22:51;;;;;;;35.38;16.80;;;;;;;1.20;50.59;101949.66;5119907;28;20051;-78
2022/03/15 03:25:19;;;;;;;39.63;17.15;;;;;;;1.17;51.15;101950.53;5120347;28;20123;-79
2022/03/15 03:27:48;;;;;;;33.95;15.93;;;;;;;1.18;50.74;101951.41;5119692;28;20101;-78
2022/03/15 03:30:17;;;;;;;33.38;17.35;;;;;;;1.18;50.59;101951.41;5120198;28;20481;-78
2022/03/15 03:32:45;;;;;;;34.08;15.57;;;;;;;1.19;51.14;101959.28;5119352;28;20070;-78
2022/03/15 03:35:13;;;;;;;36.28;16.67;;;;;;;1.16;50.97;101959.28;5119844;28;20047;-78
2022/03/15 03:37:42;;;;;;;28.23;15.40;;;;;;;1.18;50.89;101961.91;5119588;28;20051;-78
2022/03/15 03:40:11;;;;;;;30.77;15.35;;;;;;;1.42;50.35;101964.66;5119932;28;20079;-78
2022/03/15 03:42:39;;;;;;;31.92;15.68;;;;;;;1.51;49.84;101974.34;5119564;28;20119;-78
2022/03/15 03:45:09;;;;;;;32.17;15.60;;;;;;;1.42;50.09;101967.28;5120163;28;20487;-78
2022/03/15 03:47:38;;;;;;;32.50;16.48;;;;;;;1.47;50.66;101976.09;5119662;28;20035;-78
2022/03/15 03:50:08;;;;;;;32.92;15.15;;;;;;;1.44;50.70;101979.56;5119809;28;20534;-78
2022/03/15 03:52:36;;;;;;;35.90;17.58;;;;;;;1.36;51.74;101983.03;5119565;28;20044;-78
2022/03/15 03:55:05;;;;;;;35.88;18.08;;;;;;;1.30;51.46;101983.00;5119258;28;20403;-78
2022/03/15 03:57:34;;;;;;;33.70;17.75;;;;;;;1.20;52.51;101981.19;5115776;28;20075;-78
2022/03/15 04:00:04;;;;;;;41.15;20.42;;;;;;;1.18;52.40;101975.06;5116171;28;20081;-78
2022/03/15 04:02:34;;;;;;;43.58;21.88;;;;;;;1.31;52.56;101974.25;5116349;28;20039;-77
2022/03/15 04:05:02;;;;;;;47.83;21.52;;;;;;;1.11;53.14;101982.00;5116173;28;20043;-74
2022/03/15 04:07:31;;;;;;;39.83;20.98;;;;;;;0.85;54.39;101976.56;5116139;28;20036;-76
2022/03/15 04:09:59;;;;;;;42.55;22.65;;;;;;;0.78;54.57;101972.19;5116106;28;20036;-73
2022/03/15 04:12:28;;;;;;;42.00;20.55;;;;;;;0.76;54.65;101980.00;5116193;28;20047;-74
2022/03/15 04:14:58;;;;;;;38.83;17.40;;;;;;;0.78;53.79;101973.06;5116192;28;20063;-77
2022/03/15 04:17:26;;;;;;;36.60;17.88;;;;;;;0.91;52.79;101968.75;5116274;28;20046;-76
2022/03/15 04:19:56;;;;;;;36.50;18.20;;;;;;;0.86;53.95;101970.44;5115743;28;20035;-76
2022/03/15 04:22:24;;;;;;;35.35;18.02;;;;;;;0.71;53.21;101962.47;5116230;28;20043;-77
2022/03/15 04:24:52;;;;;;;34.55;17.65;;;;;;;0.74;54.43;101970.38;5115879;28;20431;-77
2022/03/15 04:27:22;;;;;;;38.72;18.48;;;;;;;0.78;54.53;101972.19;5116385;28;20043;-76
2022/03/15 04:29:50;;;;;;;36.58;18.45;;;;;;;0.73;54.39;101979.13;5115804;28;20056;-76
2022/03/15 04:32:20;;;;;;;37.20;19.20;;;;;;;0.76;54.54;101973.88;5115639;28;20046;-76
2022/03/15 04:34:48;;;;;;;34.28;18.35;;;;;;;0.70;55.28;101979.13;5115333;28;20495;-75
2022/03/15 04:37:18;;;;;;;37.60;18.75;;;;;;;0.53;56.06;101992.09;5115827;28;20374;-76
2022/03/15 04:39:49;;;;;;;36.33;18.50;;;;;;;0.68;55.40;101988.72;5115170;28;20126;-76
2022/03/15 04:42:18;;;;;;;36.33;17.48;;;;;;;0.69;55.06;101988.75;5115470;28;20047;-75
2022/03/15 04:44:46;;;;;;;33.05;17.35;;;;;;;0.72;54.79;101993.13;5115453;28;20043;-78
2022/03/15 04:47:14;;;;;;;34.55;17.98;;;;;;;0.77;54.67;102001.91;5115559;28;20097;-78
2022/03/15 04:49:42;;;;;;;37.08;19.50;;;;;;;0.68;55.38;102004.50;5114942;28;20071;-76
2022/03/15 04:52:11;;;;;;;37.10;19.33;;;;;;;0.68;55.40;102000.13;5115357;28;20039;-75
2022/03/15 04:54:40;;;;;;;36.17;19.35;;;;;;;0.47;56.16;102008.66;5114710;28;20469;-75
2022/03/15 04:57:08;;;;;;;36.53;18.83;;;;;;;0.41;56.38;102013.00;5115561;28;20476;-76
2022/03/15 04:59:37;;;;;;;39.63;18.40;;;;;;;0.32;56.48;102013.78;5114902;28;20373;-76
2022/03/15 05:02:05;;;;;;;35.90;18.77;;;;;;;0.32;56.71;102008.53;5115203;28;20156;-75
2022/03/15 05:04:34;;;;;;;36.08;19.50;;;;;;;0.29;56.67;102003.25;5115230;27;20404;-79
2022/03/15 05:07:03;;;;;;;31.20;17.63;;;;;;;0.35;56.50;102003.31;5115025;28;20040;-74
2022/03/15 05:09:34;;;;;;;35.38;18.45;;;;;;;0.36;56.64;102002.44;5115045;28;20040;-79
2022/03/15 05:12:04;;;;;;;34.30;17.88;;;;;;;0.48;56.42;102010.44;5115095;28;20040;-74
2022/03/15 05:14:32;;;;;;;31.70;17.92;;;;;;;0.63;55.94;102003.56;5115258;27;20048;-80
2022/03/15 05:17:00;;;;;;;31.73;16.98;;;;;;;0.80;54.90;102007.22;5115109;28;20070;-79
2022/03/15 05:19:29;;;;;;;40.28;18.25;;;;;;;0.66;55.55;102014.06;5114687;28;20382;-80
2022/03/15 05:21:58;;;;;;;33.22;17.42;;;;;;;0.67;55.93;102010.59;5114510;28;20126;-80
2022/03/15 05:24:27;;;;;;;34.47;18.70;;;;;;;0.68;56.71;102015.88;5115079;28;20077;-80
2022/03/15 05:26:57;;;;;;;37.92;19.08;;;;;;;0.76;56.97;102010.66;5114521;28;20110;-79
2022/03/15 05:29:27;;;;;;;36.30;18.30;;;;;;;0.72;56.49;102004.50;5114527;28;20142;-79
2022/03/15 05:31:56;;;;;;;33.40;18.48;;;;;;;0.55;57.26;102012.25;5114527;28;20044;-80
2022/03/15 05:34:24;;;;;;;33.00;18.27;;;;;;;0.63;57.20;102019.31;5114643;28;20404;-79
2022/03/15 05:36:53;;;;;;;35.38;19.33;;;;;;;0.74;57.38;102007.16;5114213;28;20122;-79
2022/03/15 05:39:21;;;;;;;40.00;19.55;;;;;;;0.85;56.87;102002.84;5114522;28;20067;-72
2022/03/15 05:41:50;;;;;;;34.72;19.67;;;;;;;0.85;57.07;102005.47;5114126;28;20040;-71
2022/03/15 05:44:18;;;;;;;43.33;20.23;;;;;;;0.64;58.24;102005.31;5114690;28;20097;-74
2022/03/15 05:46:48;;;;;;;38.17;19.55;;;;;;;0.71;58.57;101999.25;5114286;28;20473;-74
2022/03/15 05:49:16;;;;;;;37.38;19.42;;;;;;;0.93;57.85;102001.16;5114389;28;20046;-74
2022/03/15 05:51:45;;;;;;;42.42;21.30;;;;;;;1.02;57.58;101992.47;5114372;28;20036;-75
2022/03/15 05:54:13;;;;;;;39.47;21.52;;;;;;;0.84;58.72;101990.59;5114374;28;20134;-75
2022/03/15 05:56:42;;;;;;;39.50;21.10;;;;;;;0.94;58.64;101996.78;5113736;28;20035;-75
2022/03/15 05:59:13;;;;;;;41.17;22.02;;;;;;;0.99;58.85;101990.72;5114338;28;20086;-76
2022/03/15 06:01:41;;;;;;;42.35;21.60;;;;;;;1.14;58.04;101987.28;5113790;28;20044;-76
2022/03/15 06:04:11;;;;;;;45.78;22.15;;;;;;;1.34;58.13;101995.28;5114205;28;20048;-76
2022/03/15 06:06:39;;;;;;;37.83;20.73;;;;;;;1.43;57.21;101992.69;5113852;28;20050;-78
2022/03/15 06:09:08;;;;;;;38.83;21.75;;;;;;;1.53;57.42;101994.50;5114175;28;20392;-75
2022/03/15 06:11:39;;;;;;;38.00;20.77;;;;;;;1.56;57.94;101998.91;5113573;28;20075;-77
2022/03/15 06:14:07;;;;;;;42.65;21.52;;;;;;;1.72;57.62;101998.97;5114152;28;20053;-74
2022/03/15 06:16:35;;;;;;;39.28;21.02;;;;;;;1.87;56.94;101999.91;5113945;28;20063;-77
2022/03/15 06:19:04;;;;;;;39.50;21.40;;;;;;;1.91;57.54;101999.91;5112765;28;20043;-77
2022/03/15 06:21:33;;;;;;;37.92;21.70;;;;;;;2.07;56.75;102008.75;5113498;28;20044;-77
2022/03/15 06:24:02;;;;;;;38.38;22.33;;;;;;;2.03;57.30;102009.63;5113671;28;20100;-76
2022/03/15 06:26:36;;;;;;;41.83;22.58;;;;;;;2.11;57.71;101999.97;5113515;28;20036;-73
2022/03/15 06:29:05;;;;;;;41.70;22.40;;;;;;;2.15;57.75;102006.13;5113191;28;20048;-72
2022/03/15 06:31:34;;;;;;;45.67;23.90;;;;;;;2.19;57.44;102005.25;5113728;28;20053;-76
2022/03/15 06:34:04;;;;;;;43.92;22.88;;;;;;;2.20;57.93;102001.75;5113069;28;20043;-75
2022/03/15 06:36:36;;;;;;;42.60;23.77;;;;;;;2.42;56.86;102002.69;5113747;28;20392;-75
2022/03/15 06:39:05;;;;;;;43.40;24.40;;;;;;;2.44;56.76;102000.91;5113437;28;20036;-77
2022/03/15 06:41:38;;;;;;;37.35;22.33;;;;;;;2.53;56.96;101998.28;5113736;28;20089;-78
2022/03/15 06:44:11;;;;;;;45.42;24.65;;;;;;;2.43;57.13;102005.31;5113870;28;20044;-78
2022/03/15 06:46:40;;;;;;;41.17;23.80;;;;;;;2.37;57.49;102000.03;5113438;28;20039;-79
2022/03/15 06:49:08;;;;;;;43.88;23.58;;;;;;;2.52;57.68;101996.53;5113513;28;20036;-78
2022/03/15 06:51:37;;;;;;;40.17;22.92;;;;;;;2.74;56.34;102000.94;5113352;28;20032;-78
2022/03/15 06:54:06;;;;;;;42.33;23.92;;;;;;;2.81;55.46;101996.53;5112878;28;20101;-78
2022/03/15 06:56:37;;;;;;;41.22;24.02;;;;;;;2.88;55.77;101999.16;5113450;28;20044;-78
2022/03/15 06:59:06;;;;;;;47.55;24.80;;;;;;;2.99;55.03;101987.72;5113176;28;20051;-78
2022/03/15 07:01:34;;;;;;;40.78;22.67;;;;;;;2.99;55.20;101995.63;5113456;28;20067;-78
2022/03/15 07:04:05;;;;;;;42.03;23.88;;;;;;;3.39;54.23;101986.78;5113143;28;20050;-78
2022/03/15 07:06:34;;;;;;;41.03;23.13;;;;;;;3.45;53.46;101981.44;5113365;28;20104;-78
2022/03/15 07:09:04;;;;;;;42.50;23.13;;;;;;;3.48;52.52;101969.16;5113039;28;20073;-78
2022/03/15 07:11:32;;;;;;;35.63;20.17;;;;;;;3.49;51.59;101981.47;5112145;28;20496;-78
2022/03/15 07:14:02;;;;;;;43.83;23.02;;;;;;;3.79;50.86;101973.41;5113008;28;20040;-78
2022/03/15 07:16:31;;;;;;;42.00;21.67;;;;;;;3.79;50.31;101975.19;5111711;28;20488;-79
2022/03/15 07:18:59;;;;;;;37.45;21.58;;;;;;;3.85;49.51;101964.56;5113054;28;20502;-74
2022/03/15 07:21:28;;;;;;;35.63;20.92;;;;;;;3.77;49.88;101975.19;5113123;28;20047;-75
2022/03/15 07:23:58;;;;;;;36.55;21.35;;;;;;;3.79;49.96;101970.78;5112896;28;20043;-75
2022/03/15 07:26:27;;;;;;;45.53;22.88;;;;;;;3.88;49.48;101967.22;5113222;28;20036;-76
2022/03/15 07:28:56;;;;;;;36.08;20.88;;;;;;;3.89;48.67;101966.31;5112669;28;20051;-76
2022/03/15 07:31:24;;;;;;;39.05;21.15;;;;;;;3.99;48.82;101968.03;5115386;28;20067;-76
2022/03/15 07:33:53;;;;;;;38.20;21.38;;;;;;;4.09;48.63;101971.47;5116641;28;20046;-76
2022/03/15 07:36:22;;;;;;;36.17;21.25;;;;;;;4.23;47.85;101972.25;5116710;28;20050;-75
2022/03/15 07:38:50;;;;;;;34.88;20.55;;;;;;;4.34;47.05;101970.41;5116671;28;20101;-75
2022/03/15 07:41:21;;;;;;;30.00;18.48;;;;;;;4.46;45.94;101972.13;5116927;28;20469;-75
2022/03/15 07:43:51;;;;;;;34.30;18.77;;;;;;;4.64;45.27;101971.09;5116254;28;20035;-76
2022/03/15 07:46:19;;;;;;;35.92;18.98;;;;;;;4.66;44.62;101974.59;5116980;28;20070;-76
2022/03/15 07:48:50;;;;;;;37.53;19.23;;;;;;;4.68;44.96;101978.09;5116646;28;20066;-79
2022/03/15 07:51:21;;;;;;;35.65;18.75;;;;;;;4.80;44.87;101980.63;5116380;28;20123;-75
2022/03/15 07:53:55;;;;;;;31.77;19.23;;;;;;;4.89;44.65;101980.53;5116285;28;20069;-75
2022/03/15 07:56:23;;;;;;;35.25;19.23;;;;;;;5.16;43.47;101980.28;5116179;28;20461;-74
2022/03/15 07:58:53;;;;;;;42.17;19.25;;;;;;;5.06;43.57;101975.97;5116228;28;20074;-75
2022/03/15 08:01:21;;;;;;;30.02;18.33;;;;;;;5.31;42.90;101975.72;5116404;28;20070;-74
2022/03/15 08:03:49;;;;;;;37.25;19.55;;;;;;;5.18;43.42;101972.31;5115985;28;20050;-77
2022/03/15 08:06:18;;;;;;;32.80;18.25;;;;;;;5.37;42.76;101978.28;5116381;28;20172;-76
2022/03/15 08:08:46;;;;;;;31.80;17.77;;;;;;;5.34;42.94;101976.56;5115937;28;20044;-76
2022/03/15 08:11:14;;;;;;;32.95;18.70;;;;;;;5.39;42.94;101976.50;5115977;28;20039;-77
2022/03/15 08:13:43;;;;;;;30.13;19.00;;;;;;;5.42;42.78;101972.06;5115843;28;20055;-77
2022/03/15 08:16:13;;;;;;;35.45;18.70;;;;;;;5.45;42.69;101960.56;5115954;28;20396;-76
2022/03/15 08:18:41;;;;;;;29.27;18.67;;;;;;;5.62;43.12;101966.53;5115858;28;20508;-77
2022/03/15 08:21:10;;;;;;;29.35;17.17;;;;;;;5.64;42.83;101974.44;5115757;28;20528;-79
2022/03/15 08:23:38;;;;;;;30.42;17.27;;;;;;;5.55;42.90;101975.44;5115713;28;20449;-77
2022/03/15 08:26:07;;;;;;;29.88;17.13;;;;;;;5.78;42.41;101974.25;5115636;28;20051;-78
2022/03/15 08:28:36;;;;;;;32.42;17.42;;;;;;;5.96;41.47;101974.03;5115604;28;20060;-78
2022/03/15 08:31:04;;;;;;;28.50;17.35;;;;;;;6.04;41.66;101966.88;5115671;28;20044;-78
2022/03/15 08:33:34;;;;;;;33.10;18.05;;;;;;;6.32;41.49;101964.69;5116037;27;20047;-78
2022/03/15 08:36:06;;;;;;;31.17;17.45;;;;;;;6.66;41.00;101962.38;5115265;28;20091;-80
2022/03/15 08:38:35;;;;;;;33.10;17.10;;;;;;;6.77;40.24;101954.25;5115874;28;20039;-80
2022/03/15 08:41:04;;;;;;;29.42;16.90;;;;;;;6.77;40.43;101959.56;5113936;28;20051;-76
2022/03/15 08:43:33;;;;;;;27.70;16.15;;;;;;;6.81;39.74;101935.59;5114747;28;20040;-77
2022/03/15 08:46:01;;;;;;;31.55;17.65;;;;;;;6.99;39.13;101944.13;5115297;28;20042;-79
2022/03/15 08:48:30;;;;;;;33.85;17.33;;;;;;;7.12;39.07;101943.84;5114453;28;20062;-76
2022/03/15 08:51:00;;;;;;;29.33;17.23;;;;;;;7.08;39.13;101935.97;5115253;28;20062;-74
2022/03/15 08:53:32;;;;;;;28.00;15.77;;;;;;;7.21;38.58;101937.50;5115402;28;20040;-74
2022/03/15 08:56:01;;;;;;;24.05;14.57;;;;;;;7.43;38.08;101930.88;5120147;28;20039;-74
2022/03/15 08:58:30;;;;;;;22.48;12.93;;;;;;;7.73;37.07;101933.78;5115320;28;20100;-75
2022/03/15 09:00:59;;;;;;;25.05;12.95;;;;;;;7.85;36.02;101933.50;5115023;28;20371;-77
2022/03/15 09:03:43;;;;;;;22.90;12.43;;;;;;;7.96;35.76;101919.97;5115411;28;20074;-78
2022/03/15 09:06:15;;;;;;;22.70;12.88;;;;;;;8.07;36.16;101919.72;5114770;28;20462;-82
2022/03/15 09:08:43;;;;;;;20.60;12.93;;;;;;;8.08;36.13;101918.81;5115304;28;20050;-78
2022/03/15 09:11:11;;;;;;;24.60;12.38;;;;;;;8.11;36.18;101913.44;5114913;28;20043;-78
2022/03/15 09:13:40;;;;;;;21.85;12.43;;;;;;;8.12;36.07;101909.88;5114838;28;20480;-80
2022/03/15 09:16:12;;;;;;;21.48;12.27;;;;;;;8.39;35.43;101911.00;5112747;28;20044;-76
2022/03/15 09:18:41;;;;;;;23.48;12.98;;;;;;;8.64;34.82;101903.28;5094495;28;20040;-78
2022/03/15 09:21:09;;;;;;;21.23;12.73;;;;;;;8.63;34.92;101890.91;5094253;28;20051;-78
2022/03/15 09:23:40;;;;;;;22.52;12.88;;;;;;;8.70;34.66;101882.72;5094485;28;20048;-77
2022/03/15 09:26:08;;;;;;;21.50;12.73;;;;;;;8.82;34.49;101884.19;5094338;28;20054;-78
2022/03/15 09:28:37;;;;;;;21.05;11.65;;;;;;;8.98;33.75;101882.84;5094344;28;20098;-77
2022/03/15 09:31:07;;;;;;;19.73;12.07;;;;;;;9.24;33.68;101873.22;5093639;28;20071;-77
2022/03/15 09:33:36;;;;;;;21.88;12.07;;;;;;;9.41;33.20;101881.63;5094220;28;20093;-77
2022/03/15 09:36:06;;;;;;;20.98;12.30;;;;;;;9.45;33.26;101868.16;5093948;28;20417;-76
2022/03/15 09:38:35;;;;;;;22.67;12.25;;;;;;;9.55;33.21;101862.53;5094435;28;20047;-76
2022/03/15 09:41:06;;;;;;;19.35;11.10;;;;;;;9.73;33.12;101857.53;5093905;28;20040;-79
2022/03/15 09:43:37;;;;;;;16.90;11.02;;;;;;;9.96;32.46;101859.47;5094072;28;20040;-75
2022/03/15 09:46:08;;;;;;;17.17;11.20;;;;;;;10.01;32.88;101862.84;5093830;28;20040;-75
2022/03/15 09:48:56;;;;;;;17.38;10.88;;;;;;;10.29;32.70;101860.19;5093912;28;20044;-74
2022/03/15 09:51:27;;;;;;;19.30;11.95;;;;;;;10.49;32.42;101848.84;5093708;28;20091;-74
2022/03/15 09:53:57;;;;;;;19.15;10.70;;;;;;;10.51;32.20;101851.44;5093573;28;20042;-75
2022/03/15 09:56:29;;;;;;;19.63;11.27;;;;;;;10.64;32.13;101851.91;5093821;28;20040;-74
2022/03/15 09:58:57;;;;;;;21.15;11.07;;;;;;;10.68;31.95;101838.41;5093798;28;20119;-75
2022/03/15 10:01:26;;;;;;;19.75;11.23;;;;;;;10.74;32.11;101842.66;5093733;28;20497;-75
2022/03/15 10:03:54;;;;;;;20.60;11.40;;;;;;;10.99;31.68;101837.28;5093595;28;20036;-71
2022/03/15 10:06:23;;;;;;;18.85;10.93;;;;;;;11.12;31.56;101835.91;5093195;28;20137;-71
2022/03/15 10:08:52;;;;;;;19.70;11.40;;;;;;;11.14;31.50;101831.38;5093338;28;20079;-71
2022/03/15 10:11:23;;;;;;;16.48;9.43;;;;;;;11.32;30.43;101822.69;5093261;28;20101;-73
2022/03/15 10:13:53;;;;;;;17.15;8.98;;;;;;;11.38;30.54;101825.09;5093788;28;20051;-71
2022/03/15 10:16:22;;;;;;;17.35;9.70;;;;;;;11.42;30.35;101816.03;5092915;28;20044;-72
2022/03/15 10:18:55;;;;;;;18.08;9.32;;;;;;;11.44;30.44;101816.84;5093561;28;20051;-71
2022/03/15 10:21:25;;;;;;;16.58;9.73;;;;;;;11.64;30.30;101812.53;5075090;28;20052;-71
2022/03/15 10:23:54;;;;;;;15.23;9.30;;;;;;;11.67;29.99;101804.38;5093494;28;20040;-71
2022/03/15 10:26:24;;;;;;;27.27;9.13;;;;;;;11.74;30.04;101805.88;5093086;28;20123;-72
2022/03/15 10:28:56;;;;;;;13.77;8.50;;;;;;;11.79;29.98;101809.25;5093150;28;20054;-72
2022/03/15 10:31:28;;;;;;;16.92;8.43;;;;;;;11.93;29.43;101796.19;5093028;28;20040;-72
2022/03/15 10:34:00;;;;;;;16.10;7.95;;;;;;;11.99;29.09;101785.25;5093639;28;20131;-71
2022/03/15 10:36:37;;;;;;;14.02;7.50;;;;;;;12.06;29.04;101790.34;5092990;28;20036;-71
2022/03/15 10:39:07;;;;;;;15.25;8.45;;;;;;;12.00;29.69;101787.00;5092616;28;20040;-72
2022/03/15 10:41:48;;;;;;;15.05;8.40;;;;;;;12.05;29.86;101784.13;5093462;28;20109;-71
2022/03/15 10:44:21;;;;;;;12.27;7.50;;;;;;;12.22;29.28;101775.38;5092489;28;20044;-72
2022/03/15 10:47:07;;;;;;;16.02;9.02;;;;;;;12.31;29.10;101775.00;5093302;28;20123;-71
2022/03/15 10:49:48;;;;;;;15.18;8.02;;;;;;;12.25;29.29;101775.25;5092951;28;20093;-72
2022/03/15 10:52:30;;;;;;;15.43;8.45;;;;;;;12.42;29.21;101767.38;5092475;28;20048;-72
2022/03/15 10:55:10;;;;;;;12.25;7.70;;;;;;;12.49;30.01;101758.13;5092772;28;20036;-72
2022/03/15 10:57:49;;;;;;;14.25;8.65;;;;;;;12.59;28.81;101746.09;5092813;28;20044;-72
2022/03/15 11:00:22;;;;;;;14.93;8.60;;;;;;;12.62;28.77;101747.75;5102300;28;20040;-74
2022/03/15 11:02:52;;;;;;;15.07;8.55;;;;;;;12.64;28.45;101731.59;5112590;28;20040;-72
2022/03/15 11:05:29;;;;;;;13.68;7.97;;;;;;;12.64;29.01;101724.44;5112397;28;20392;-74
2022/03/15 11:07:59;;;;;;;13.75;7.63;;;;;;;12.70;28.83;101725.97;5116352;28;20036;-76
2022/03/15 11:10:27;;;;;;;13.68;8.63;;;;;;;12.78;29.08;101719.34;5116394;28;20538;-76
2022/03/15 11:13:02;;;;;;;14.65;8.63;;;;;;;12.74;29.04;101711.50;5116065;28;20073;-73
2022/03/15 11:15:39;;;;;;;16.30;8.48;;;;;;;12.90;28.98;101704.50;5115847;28;20469;-77
2022/03/15 11:18:10;;;;;;;13.48;8.00;;;;;;;12.89;28.85;101705.44;5116255;28;20071;-72
2022/03/15 11:20:40;;;;;;;17.67;8.80;;;;;;;12.99;29.86;101692.50;5115614;28;20063;-75
2022/03/15 11:23:13;;;;;;;14.10;7.88;;;;;;;13.17;28.38;101681.78;5115771;28;20124;-74
2022/03/15 11:25:43;;;;;;;13.30;8.20;;;;;;;13.25;28.20;101664.50;5115891;28;20032;-72
2022/03/15 11:28:14;;;;;;;15.57;7.85;;;;;;;13.24;27.79;101668.13;5115234;28;20047;-74